Creston, IA (50801)

7:26 PM CST on December 05, 2016 (GMT -0600)
Bill Sears Ballpark | | Change Station

Elev 1316 ft 41.05 °N, 94.36 °W | Updated 9 seconds ago

Clear
Clear
37.5 °F
Feels Like 38 °F
N
2.0
Wind Variable Wind from ESE

Today
High -- | Low -- °F
--% Chance of Precip.
Yesterday
High -- | Low -- °F
Precip. -- in
Pressure 29.73 in
Visibility 10.0 miles
Clouds Clear
Windchill 38 °F
Dew Point 34 °F
Humidity 88%
Rainfall 0.00 in
Snow Depth Not available.
7:27 AM 4:48 PM
Waxing Crescent, 36% visible
METAR KCSQ 060115Z AUTO 15009KT 10SM CLR 04/01 A2973 RMK AO2
Pressure 29.73 in
Visibility 10.0 miles
Clouds Clear
Windchill 38 °F
Dew Point 34 °F
Humidity 88%
Rainfall 0.00 in
Snow Depth Not available.
7:27 AM 4:48 PM
Waxing Crescent, 36% visible
METAR KCSQ 060115Z AUTO 15009KT 10SM CLR 04/01 A2973 RMK AO2

10-Day Weather Forecast

Almanac

Astronomy

Dec. 05, 2016 Rise Set
Actual Time
Civil Twilight
Nautical Twilight
Astronomical Twilight
Moon
Length of Visible Light
Length of Day
Tomorrow will be .
, % of the Moon is Illuminated

Today's Extremes

State Highs State Lows

Community

WunderPhotos

Upload Photos

1,955,893 photos uploaded!

WunderBlog® & News

Nearby

Air Quality

  Air Quality AQ Index Pollutant
Not available.

Snow Depth

Station Depth Elevation

Earthquake Activity

City Distance Mag. Time & Date
Minimum magnitude displayed is 2.5.

Coastal Water Temperatures

Place Temperature

Stations

Nearby Weather Stations

Station Location Temp. Windchill Dew Point Humidity Wind Precip. Elev Updated Type
                   

Watches & Warnings

There are currently no watches in effect.